Time;durP1;ratioP1;P1;durP2;ratioP2;P2;SDS_P1;SDS_P2;PMS_P1;PMS_P2;Temp;Humidity;BMP_temperature;BMP_pressure;BME280_temperature;BME280_humidity;BME280_pressure;Samples;Min_cycle;Max_cycle;Signal;HPM_P1;HPM_P2
2022/09/30 00:01:21;;;;;;;3.10;2.38;;;8.40;89.90;;;;;;5015396;28;20031;-75
2022/09/30 00:03:49;;;;;;;5.55;2.70;;;8.40;89.10;;;;;;5015655;28;20087;-75
2022/09/30 00:06:15;;;;;;;5.30;2.63;;;8.40;89.10;;;;;;5015270;28;20025;-75
2022/09/30 00:08:41;;;;;;;5.25;3.03;;;8.40;89.30;;;;;;5015396;28;20355;-75
2022/09/30 00:11:19;;;;;;;5.18;3.10;;;8.40;89.40;;;;;;5015300;28;20032;-75
2022/09/30 00:13:47;;;;;;;6.45;3.00;;;8.30;89.70;;;;;;5015163;28;20026;-75
2022/09/30 00:16:15;;;;;;;3.72;2.63;;;8.20;89.90;;;;;;5015260;28;20025;-75
2022/09/30 00:18:41;;;;;;;3.90;2.90;;;8.20;90.10;;;;;;5015595;28;20065;-75
2022/09/30 00:21:09;;;;;;;3.83;2.70;;;8.20;90.20;;;;;;5015117;28;20489;-75
2022/09/30 00:23:36;;;;;;;4.00;2.83;;;8.10;90.50;;;;;;5015078;28;20022;-75
2022/09/30 00:26:05;;;;;;;3.40;2.72;;;8.20;90.60;;;;;;5014566;28;20358;-75
2022/09/30 00:28:31;;;;;;;5.05;3.00;;;8.00;90.70;;;;;;5014820;28;20026;-75
2022/09/30 00:31:04;;;;;;;5.15;2.92;;;8.10;91.20;;;;;;5015013;28;20061;-74
2022/09/30 00:33:29;;;;;;;3.90;2.90;;;8.10;91.10;;;;;;5015395;28;20115;-75
2022/09/30 00:35:55;;;;;;;4.47;2.97;;;8.20;91.00;;;;;;5015155;28;20064;-75
2022/09/30 00:38:21;;;;;;;4.45;3.22;;;8.20;91.10;;;;;;5015057;28;20037;-75
2022/09/30 00:40:48;;;;;;;4.40;2.80;;;8.30;91.10;;;;;;5015316;28;20026;-75
2022/09/30 00:43:16;;;;;;;2.75;2.30;;;8.30;91.00;;;;;;5015053;28;20026;-75
2022/09/30 00:45:50;;;;;;;2.60;2.15;;;8.40;90.90;;;;;;5015122;28;20528;-75
2022/09/30 00:48:30;;;;;;;4.03;2.50;;;8.50;90.80;;;;;;5014823;28;20033;-79
2022/09/30 00:50:57;;;;;;;4.20;2.30;;;8.60;90.50;;;;;;5032691;28;20533;-79
2022/09/30 00:53:33;;;;;;;4.25;2.50;;;8.60;90.20;;;;;;5032779;28;20359;-75
2022/09/30 00:56:13;;;;;;;2.63;2.20;;;8.70;90.10;;;;;;5015051;28;20446;-78
2022/09/30 00:59:04;;;;;;;3.40;2.30;;;8.60;89.80;;;;;;5032607;28;20032;-75
2022/09/30 01:01:30;;;;;;;3.80;2.50;;;8.60;89.80;;;;;;5011860;28;20478;-75
2022/09/30 01:04:01;;;;;;;2.83;2.03;;;8.60;89.70;;;;;;5015099;28;20033;-79
2022/09/30 01:06:26;;;;;;;4.53;2.13;;;8.60;89.30;;;;;;5015043;28;20033;-75
2022/09/30 01:08:54;;;;;;;2.88;1.90;;;8.70;89.40;;;;;;5014803;28;20120;-77
2022/09/30 01:11:20;;;;;;;2.72;2.08;;;8.60;89.40;;;;;;5015165;28;20476;-75
2022/09/30 01:13:49;;;;;;;3.25;2.10;;;8.60;89.10;;;;;;5014674;28;20021;-75
2022/09/30 01:16:29;;;;;;;3.42;2.10;;;8.50;89.40;;;;;;5015054;28;20068;-77
2022/09/30 01:18:57;;;;;;;2.75;2.20;;;8.50;89.50;;;;;;5032513;28;20128;-78
2022/09/30 01:21:55;;;;;;;3.35;2.80;;;8.50;89.40;;;;;;5032358;28;20017;-75
2022/09/30 01:24:51;;;;;;;3.53;2.67;;;8.40;90.10;;;;;;5014893;28;20028;-75
2022/09/30 01:27:31;;;;;;;3.83;2.42;;;8.40;90.10;;;;;;5015389;28;20022;-75
2022/09/30 01:30:20;;;;;;;3.08;2.65;;;8.50;90.30;;;;;;5014692;28;20030;-75
2022/09/30 01:33:07;;;;;;;3.58;2.67;;;8.50;90.30;;;;;;5014978;28;20017;-76
2022/09/30 01:35:38;;;;;;;4.03;3.20;;;8.60;90.30;;;;;;5032419;28;20032;-75
2022/09/30 01:38:29;;;;;;;6.53;4.00;;;8.50;90.40;;;;;;5016372;28;20033;-75
2022/09/30 01:41:10;;;;;;;5.35;3.83;;;8.60;90.40;;;;;;5018319;28;20093;-75
2022/09/30 01:43:56;;;;;;;7.30;4.22;;;8.60;90.30;;;;;;5018298;28;20123;-74
2022/09/30 01:46:31;;;;;;;5.63;3.67;;;8.70;90.60;;;;;;5018202;28;20068;-76
2022/09/30 01:49:06;;;;;;;3.92;3.00;;;8.70;90.60;;;;;;5018132;28;20022;-75
2022/09/30 01:51:55;;;;;;;2.70;2.38;;;8.70;90.60;;;;;;5017945;28;20069;-76
2022/09/30 01:54:31;;;;;;;2.08;1.67;;;8.70;90.30;;;;;;5018067;28;20549;-76
2022/09/30 01:57:10;;;;;;;3.50;2.35;;;8.70;90.20;;;;;;5017906;28;20049;-76
2022/09/30 01:59:49;;;;;;;4.03;2.30;;;8.80;90.20;;;;;;5018033;28;20053;-75
2022/09/30 02:02:25;;;;;;;3.28;2.67;;;8.80;90.20;;;;;;5017972;28;20032;-74
2022/09/30 02:04:59;;;;;;;3.70;2.97;;;8.80;90.20;;;;;;5017555;28;20079;-75
2022/09/30 02:07:32;;;;;;;3.33;2.83;;;8.80;90.20;;;;;;5017659;28;20026;-75
2022/09/30 02:10:11;;;;;;;4.00;2.80;;;8.80;90.20;;;;;;5017762;28;20091;-75
2022/09/30 02:12:45;;;;;;;3.33;2.13;;;8.80;90.10;;;;;;5017466;28;20018;-75
2022/09/30 02:15:15;;;;;;;3.95;2.75;;;8.80;90.00;;;;;;5017622;28;20037;-76
2022/09/30 02:17:48;;;;;;;3.40;2.70;;;8.80;90.00;;;;;;5017591;28;20032;-75
2022/09/30 02:20:27;;;;;;;4.88;2.22;;;8.80;90.00;;;;;;5017530;28;20032;-75
2022/09/30 02:23:02;;;;;;;4.28;2.30;;;8.80;89.90;;;;;;5017642;28;20026;-75
2022/09/30 02:25:38;;;;;;;3.33;2.20;;;8.80;89.80;;;;;;5017409;28;20115;-75
2022/09/30 02:28:06;;;;;;;;;;;8.80;89.70;;;;;;5017964;28;20022;-75
2022/09/30 02:30:38;;;;;;;3.17;2.20;;;8.80;89.70;;;;;;5017238;28;19913;-75
2022/09/30 02:33:11;;;;;;;3.03;2.15;;;8.80;89.70;;;;;;5017125;28;20024;-75
2022/09/30 02:35:46;;;;;;;2.70;1.88;;;8.80;89.60;;;;;;5017037;28;20053;-75
2022/09/30 02:38:35;;;;;;;2.47;2.25;;;8.80;89.60;;;;;;5017268;28;20024;-75
2022/09/30 02:41:07;;;;;;;3.63;2.83;;;8.80;89.50;;;;;;5017166;28;20032;-75
2022/09/30 02:43:33;;;;;;;5.32;2.83;;;8.70;89.40;;;;;;5034439;28;20547;-75
2022/09/30 02:46:20;;;;;;;4.90;2.50;;;8.60;89.50;;;;;;5017168;28;20029;-76
2022/09/30 02:49:08;;;;;;;3.45;2.03;;;8.60;89.60;;;;;;5016285;28;20022;-76
2022/09/30 02:51:47;;;;;;;2.17;1.70;;;8.60;89.90;;;;;;5016643;28;20501;-76
2022/09/30 02:54:42;;;;;;;2.90;2.28;;;8.60;90.00;;;;;;5016933;28;20025;-76
2022/09/30 02:57:33;;;;;;;1.75;1.60;;;8.70;90.10;;;;;;5034417;28;20068;-76
2022/09/30 02:59:59;;;;;;;2.03;1.63;;;8.70;90.00;;;;;;5016991;28;20025;-76
2022/09/30 03:02:24;;;;;;;2.55;1.73;;;8.60;89.90;;;;;;5016524;28;20029;-76
2022/09/30 03:04:50;;;;;;;2.38;2.13;;;8.70;90.00;;;;;;5016504;28;20025;-75
2022/09/30 03:07:16;;;;;;;2.20;2.00;;;8.60;89.80;;;;;;5016420;28;20021;-76
2022/09/30 03:09:42;;;;;;;2.83;1.60;;;8.60;89.70;;;;;;5016321;28;20029;-75
2022/09/30 03:12:23;;;;;;;2.17;1.67;;;8.70;89.70;;;;;;5016394;28;20049;-75
2022/09/30 03:15:35;;;;;;;1.60;1.50;;;8.60;89.60;;;;;;5016403;28;20041;-75
2022/09/30 03:18:22;;;;;;;4.55;2.03;;;8.60;89.40;;;;;;4998228;28;20037;-75
2022/09/30 03:21:36;;;;;;;2.72;1.85;;;8.50;89.40;;;;;;5016177;28;20084;-75
2022/09/30 03:24:21;;;;;;;2.20;1.80;;;8.50;89.30;;;;;;5007212;28;20060;-74
2022/09/30 03:27:34;;;;;;;1.65;1.45;;;8.40;89.30;;;;;;5016210;28;20048;-75
2022/09/30 03:30:04;;;;;;;2.00;1.58;;;8.50;89.60;;;;;;5004637;28;20041;-75
2022/09/30 03:32:36;;;;;;;1.50;1.35;;;8.50;89.60;;;;;;5016116;28;20477;-75
2022/09/30 03:35:02;;;;;;;4.78;2.03;;;8.50;89.60;;;;;;5016284;28;20029;-76
2022/09/30 03:37:44;;;;;;;3.70;1.67;;;8.40;89.30;;;;;;5015854;28;20386;-76
2022/09/30 03:40:36;;;;;;;5.82;2.20;;;8.40;89.00;;;;;;5015751;28;20469;-77
2022/09/30 03:43:36;;;;;;;3.08;2.35;;;8.40;88.80;;;;;;5016200;28;20057;-75
2022/09/30 03:46:20;;;;;;;4.75;2.35;;;8.40;89.10;;;;;;5031880;28;20056;-75
2022/09/30 03:48:49;;;;;;;7.55;3.67;;;8.30;89.40;;;;;;5015411;28;20036;-75
2022/09/30 03:51:16;;;;;;;9.13;4.70;;;8.30;89.70;;;;;;5015606;28;20530;-75
2022/09/30 03:53:42;;;;;;;10.77;5.10;;;8.30;89.70;;;;;;5033079;28;20018;-74
2022/09/30 03:56:08;;;;;;;7.60;5.07;;;8.30;89.70;;;;;;5015618;28;20025;-76
2022/09/30 03:58:37;;;;;;;6.50;4.80;;;8.30;89.80;;;;;;5033383;28;20022;-76
2022/09/30 04:01:03;;;;;;;6.32;4.13;;;8.30;89.80;;;;;;5032391;28;20022;-75
2022/09/30 04:03:28;;;;;;;6.25;3.92;;;8.30;89.50;;;;;;5014797;28;20390;-75
2022/09/30 04:05:54;;;;;;;4.60;3.22;;;8.30;89.40;;;;;;5032934;28;20379;-77
2022/09/30 04:08:21;;;;;;;4.95;3.92;;;8.30;89.70;;;;;;5015469;28;20036;-77
2022/09/30 04:10:46;;;;;;;4.15;3.38;;;8.10;89.70;;;;;;5015358;28;20044;-78
2022/09/30 04:13:12;;;;;;;4.90;3.30;;;8.20;90.10;;;;;;5015425;28;20021;-77
2022/09/30 04:15:39;;;;;;;4.28;3.40;;;8.20;90.20;;;;;;5015368;28;20045;-76
2022/09/30 04:18:05;;;;;;;4.95;3.80;;;8.10;90.50;;;;;;5015152;28;20026;-79
2022/09/30 04:20:31;;;;;;;6.55;4.13;;;8.10;90.80;;;;;;5015349;28;20112;-76
2022/09/30 04:23:02;;;;;;;9.10;4.82;;;8.00;90.80;;;;;;5015238;28;20389;-76
2022/09/30 04:25:28;;;;;;;7.13;4.88;;;8.10;90.90;;;;;;5015234;28;20473;-75
2022/09/30 04:27:54;;;;;;;5.72;4.30;;;8.10;91.00;;;;;;5015347;28;20113;-76
2022/09/30 04:30:20;;;;;;;5.13;4.00;;;8.10;90.80;;;;;;5015174;28;20030;-76
2022/09/30 04:32:46;;;;;;;5.78;4.25;;;8.10;90.50;;;;;;5015375;28;20076;-75
2022/09/30 04:35:12;;;;;;;6.25;4.15;;;8.10;90.50;;;;;;5015392;28;20074;-76
2022/09/30 04:37:45;;;;;;;5.43;3.65;;;8.10;90.30;;;;;;5032954;28;20025;-76
2022/09/30 04:40:12;;;;;;;7.30;3.85;;;8.10;90.40;;;;;;5014729;28;20390;-76
2022/09/30 04:42:41;;;;;;;6.35;4.20;;;8.20;90.40;;;;;;5015085;28;20045;-76
2022/09/30 04:45:09;;;;;;;6.45;3.70;;;8.30;90.40;;;;;;5014469;28;20030;-76
2022/09/30 04:47:34;;;;;;;3.95;3.30;;;8.20;90.00;;;;;;5014974;28;20482;-78
2022/09/30 04:50:00;;;;;;;7.38;3.63;;;8.30;90.00;;;;;;5015092;28;20044;-76
2022/09/30 04:52:26;;;;;;;6.55;4.40;;;8.30;90.00;;;;;;5015025;28;20466;-77
2022/09/30 04:54:52;;;;;;;5.50;4.20;;;8.30;89.80;;;;;;5014946;28;20032;-77
2022/09/30 04:57:18;;;;;;;8.07;5.10;;;8.30;89.70;;;;;;5014644;28;20021;-77
2022/09/30 04:59:44;;;;;;;6.80;4.95;;;8.30;89.70;;;;;;5014871;28;20482;-76
2022/09/30 05:02:11;;;;;;;8.40;4.60;;;8.30;89.70;;;;;;5015105;28;20029;-77
2022/09/30 05:04:37;;;;;;;6.43;5.15;;;8.30;89.80;;;;;;5032581;28;20112;-78
2022/09/30 05:07:07;;;;;;;8.00;5.60;;;8.30;89.70;;;;;;5015188;28;20101;-77
2022/09/30 05:09:33;;;;;;;7.40;5.38;;;8.30;89.80;;;;;;5014819;28;20075;-75
2022/09/30 05:12:02;;;;;;;8.38;5.72;;;8.20;89.90;;;;;;5014366;28;20057;-76
2022/09/30 05:14:29;;;;;;;9.10;6.20;;;8.20;90.10;;;;;;5036100;28;20056;-75
2022/09/30 05:16:55;;;;;;;11.43;6.15;;;8.30;90.00;;;;;;5018340;28;20029;-74
2022/09/30 05:19:21;;;;;;;9.88;6.00;;;8.30;90.00;;;;;;5018213;28;20389;-74
2022/09/30 05:21:46;;;;;;;9.82;7.20;;;8.30;90.00;;;;;;5017788;28;20112;-74
2022/09/30 05:24:12;;;;;;;10.27;7.18;;;8.20;89.80;;;;;;5017931;28;20116;-75
2022/09/30 05:26:39;;;;;;;10.75;7.53;;;8.30;89.80;;;;;;5017618;28;20083;-75
2022/09/30 05:29:05;;;;;;;9.55;7.10;;;8.20;89.80;;;;;;5017152;28;20445;-77
2022/09/30 05:31:32;;;;;;;9.93;6.55;;;8.20;89.90;;;;;;5017530;28;20070;-76
2022/09/30 05:34:00;;;;;;;7.80;6.07;;;8.20;90.00;;;;;;5017762;28;20028;-76
2022/09/30 05:36:26;;;;;;;8.13;5.47;;;8.20;90.20;;;;;;4999633;28;20034;-76
2022/09/30 05:38:52;;;;;;;7.95;5.85;;;8.20;90.20;;;;;;5014595;28;20183;-75
2022/09/30 05:41:19;;;;;;;8.18;5.97;;;8.30;90.30;;;;;;5014251;28;20037;-75
2022/09/30 05:43:48;;;;;;;8.30;5.60;;;8.40;90.20;;;;;;5014409;28;20026;-75
2022/09/30 05:46:16;;;;;;;7.65;5.85;;;8.40;90.80;;;;;;5014841;28;20026;-75
2022/09/30 05:48:41;;;;;;;10.98;6.68;;;8.40;89.90;;;;;;5014379;28;20041;-75
2022/09/30 05:51:09;;;;;;;8.88;5.95;;;8.40;89.40;;;;;;5014371;28;20561;-75
2022/09/30 05:53:40;;;;;;;11.57;5.57;;;8.40;89.20;;;;;;4997785;28;20029;-74
2022/09/30 05:56:06;;;;;;;11.80;5.60;;;8.40;89.20;;;;;;5014197;28;20029;-76
2022/09/30 05:58:32;;;;;;;8.25;5.80;;;8.30;89.20;;;;;;5014379;28;20117;-74
2022/09/30 06:01:07;;;;;;;7.88;6.05;;;8.20;89.60;;;;;;5014226;28;20419;-74
2022/09/30 06:03:33;;;;;;;7.72;5.65;;;8.10;90.00;;;;;;5013980;28;20430;-75
2022/09/30 06:05:59;;;;;;;7.10;5.32;;;8.20;89.90;;;;;;5014322;28;20118;-76
2022/09/30 06:08:25;;;;;;;8.88;7.03;;;8.20;89.50;;;;;;5014235;28;20126;-76
2022/09/30 06:10:51;;;;;;;8.93;6.90;;;8.30;89.70;;;;;;5013382;28;20034;-76
2022/09/30 06:13:16;;;;;;;9.80;6.78;;;8.30;89.50;;;;;;5014052;28;20088;-76
2022/09/30 06:15:43;;;;;;;11.88;6.65;;;8.40;89.30;;;;;;5031098;28;20060;-76
2022/09/30 06:18:11;;;;;;;10.77;7.13;;;8.50;88.90;;;;;;5033941;28;20032;-76
2022/09/30 06:20:37;;;;;;;10.38;6.32;;;8.50;88.70;;;;;;5017031;28;20482;-76
2022/09/30 06:23:03;;;;;;;13.98;7.00;;;8.50;88.50;;;;;;5033118;28;20034;-77
2022/09/30 06:25:29;;;;;;;10.88;6.43;;;8.60;88.30;;;;;;5033396;28;20026;-76
2022/09/30 06:27:55;;;;;;;12.70;7.72;;;8.60;88.20;;;;;;5033133;28;20021;-75
2022/09/30 06:30:21;;;;;;;13.18;7.80;;;8.70;88.10;;;;;;5033322;28;20044;-76
2022/09/30 06:32:46;;;;;;;11.30;7.97;;;8.80;87.70;;;;;;5033269;28;20017;-77
2022/09/30 06:35:12;;;;;;;11.25;7.40;;;8.80;87.20;;;;;;5033375;28;20378;-76
2022/09/30 06:37:40;;;;;;;9.48;6.00;;;8.80;87.00;;;;;;5032952;28;20036;-76
2022/09/30 06:40:07;;;;;;;8.07;5.38;;;8.90;87.20;;;;;;5033248;28;20029;-78
2022/09/30 06:42:33;;;;;;;9.35;6.32;;;9.00;87.00;;;;;;5016371;28;20458;-76
2022/09/30 06:44:59;;;;;;;8.27;5.63;;;9.00;86.80;;;;;;5032996;28;20378;-77
2022/09/30 06:47:25;;;;;;;12.68;6.10;;;9.00;86.10;;;;;;5032797;28;20032;-76
2022/09/30 06:49:51;;;;;;;9.38;6.35;;;9.00;86.30;;;;;;5032247;28;20048;-76
2022/09/30 06:52:18;;;;;;;9.20;6.13;;;9.00;86.10;;;;;;5032757;28;20369;-76
2022/09/30 06:54:45;;;;;;;10.20;5.50;;;9.10;86.40;;;;;;5032374;28;20026;-75
2022/09/30 06:57:11;;;;;;;8.05;5.10;;;9.30;86.60;;;;;;5032422;28;20103;-75
2022/09/30 06:59:37;;;;;;;7.60;5.43;;;9.30;86.10;;;;;;5032238;28;20049;-74
2022/09/30 07:02:03;;;;;;;8.35;5.00;;;9.40;85.90;;;;;;5033538;28;20386;-75
2022/09/30 07:04:29;;;;;;;6.22;4.55;;;9.50;86.00;;;;;;5031793;28;20473;-74
2022/09/30 07:06:54;;;;;;;43.30;7.05;;;9.60;86.10;;;;;;5032362;28;20025;-72
2022/09/30 07:09:20;;;;;;;22.40;5.60;;;10.00;93.80;;;;;;5032450;28;20021;-73
2022/09/30 07:11:47;;;;;;;11.63;4.78;;;10.30;95.60;;;;;;5032537;28;20561;-73
2022/09/30 07:14:13;;;;;;;8.77;4.63;;;10.50;93.50;;;;;;5032302;28;20434;-75
2022/09/30 07:16:39;;;;;;;9.23;5.40;;;10.70;89.90;;;;;;5015662;28;20040;-73
2022/09/30 07:19:06;;;;;;;10.50;5.25;;;11.00;86.70;;;;;;5032366;28;20051;-74
2022/09/30 07:21:31;;;;;;;6.25;4.43;;;11.10;84.60;;;;;;5032432;28;20125;-73
2022/09/30 07:23:59;;;;;;;10.75;4.63;;;11.10;82.40;;;;;;5032243;28;20455;-74
2022/09/30 07:26:25;;;;;;;8.52;4.40;;;11.30;82.20;;;;;;5032627;28;20025;-73
2022/09/30 07:28:52;;;;;;;7.38;4.45;;;11.40;81.30;;;;;;5031947;28;20155;-73
2022/09/30 07:31:20;;;;;;;8.68;4.88;;;11.40;78.20;;;;;;5032008;28;20114;-75
2022/09/30 07:33:50;;;;;;;7.13;5.22;;;11.40;78.70;;;;;;5031953;28;20041;-74
2022/09/30 07:36:17;;;;;;;6.82;4.50;;;11.30;78.20;;;;;;5031725;28;20076;-74
2022/09/30 07:38:44;;;;;;;5.32;3.60;;;11.20;78.40;;;;;;5031672;28;20048;-74
2022/09/30 07:41:16;;;;;;;6.32;4.47;;;11.00;78.70;;;;;;5031732;28;20067;-75
2022/09/30 07:43:44;;;;;;;7.18;5.60;;;10.90;79.80;;;;;;5032125;28;20057;-74
2022/09/30 07:46:26;;;;;;;7.95;4.88;;;10.80;79.20;;;;;;5031884;28;20669;-74
2022/09/30 07:48:55;;;;;;;8.70;5.60;;;10.80;79.80;;;;;;5015366;28;20033;-74
2022/09/30 07:51:29;;;;;;;9.15;5.13;;;10.80;80.10;;;;;;5031988;28;20034;-74
2022/09/30 07:53:58;;;;;;;6.88;4.45;;;10.80;80.30;;;;;;5031844;28;20028;-74
2022/09/30 07:56:24;;;;;;;7.45;4.60;;;10.80;80.40;;;;;;5014897;28;20030;-74
2022/09/30 07:58:59;;;;;;;6.82;4.53;;;10.90;80.70;;;;;;5031318;28;20417;-75
2022/09/30 08:01:26;;;;;;;5.15;3.42;;;11.00;81.00;;;;;;5033292;28;20021;-74
2022/09/30 08:03:55;;;;;;;6.10;4.97;;;11.00;81.10;;;;;;5015193;28;20053;-75
2022/09/30 08:06:21;;;;;;;8.00;5.25;;;11.10;81.30;;;;;;5031314;28;20021;-75
2022/09/30 08:08:51;;;;;;;6.38;4.97;;;11.20;81.20;;;;;;5031508;28;20025;-75
2022/09/30 08:11:17;;;;;;;9.13;5.43;;;11.20;80.90;;;;;;5032933;28;20049;-75
2022/09/30 08:13:43;;;;;;;7.38;5.50;;;11.30;80.90;;;;;;5030730;28;20442;-75
2022/09/30 08:16:08;;;;;;;9.65;5.68;;;11.40;80.60;;;;;;5005379;28;20057;-74
2022/09/30 08:18:35;;;;;;;8.60;5.68;;;11.40;80.50;;;;;;5003986;28;20041;-75
2022/09/30 08:21:05;;;;;;;8.07;5.65;;;11.50;80.50;;;;;;5013825;28;20105;-74
2022/09/30 08:23:31;;;;;;;8.15;6.22;;;11.40;80.10;;;;;;5014610;28;20116;-74
2022/09/30 08:26:08;;;;;;;8.95;5.53;;;11.40;79.90;;;;;;5014837;28;20587;-75
2022/09/30 08:28:34;;;;;;;7.53;4.63;;;11.20;80.80;;;;;;5014936;28;20032;-75
2022/09/30 08:31:06;;;;;;;6.53;5.20;;;11.20;81.50;;;;;;5015149;28;20044;-74
2022/09/30 08:33:33;;;;;;;8.93;5.57;;;11.20;81.90;;;;;;5014796;28;20432;-75
2022/09/30 08:36:07;;;;;;;10.25;5.55;;;11.10;82.60;;;;;;5014621;28;20025;-75
2022/09/30 08:38:33;;;;;;;8.60;6.55;;;11.00;83.30;;;;;;5014574;28;20383;-76
2022/09/30 08:41:31;;;;;;;10.02;7.43;;;11.00;83.60;;;;;;5014509;28;20471;-75
2022/09/30 08:44:31;;;;;;;10.82;7.60;;;11.00;83.70;;;;;;5014663;28;20022;-74
2022/09/30 08:47:22;;;;;;;10.18;7.22;;;11.10;83.80;;;;;;5014704;28;20025;-75
2022/09/30 08:50:15;;;;;;;8.60;6.25;;;11.40;83.00;;;;;;5018659;28;20029;-75
2022/09/30 08:52:48;;;;;;;11.80;7.35;;;11.80;82.20;;;;;;5035708;28;20060;-75
2022/09/30 08:55:28;;;;;;;10.07;7.28;;;12.10;81.40;;;;;;5018857;28;20025;-74
2022/09/30 08:57:56;;;;;;;11.30;6.93;;;12.40;80.00;;;;;;5018460;28;20466;-75
2022/09/30 09:00:22;;;;;;;15.93;8.13;;;12.50;79.10;;;;;;5018201;28;20055;-75
2022/09/30 09:02:56;;;;;;;12.43;8.07;;;12.60;77.70;;;;;;5018210;28;20029;-75
2022/09/30 09:05:30;;;;;;;12.43;8.32;;;12.50;78.10;;;;;;5017949;28;20021;-74
2022/09/30 09:08:18;;;;;;;11.48;8.27;;;12.70;77.60;;;;;;5017942;28;20049;-77
2022/09/30 09:10:56;;;;;;;12.32;7.90;;;12.70;77.30;;;;;;5017586;28;20033;-76
2022/09/30 09:13:34;;;;;;;12.60;9.02;;;12.80;77.00;;;;;;5034611;28;20030;-76
2022/09/30 09:16:25;;;;;;;11.75;8.20;;;12.80;76.20;;;;;;5012556;28;20046;-73
2022/09/30 09:19:18;;;;;;;12.30;7.65;;;12.80;76.20;;;;;;5013418;28;20030;-75
2022/09/30 09:21:55;;;;;;;12.52;7.93;;;12.80;76.60;;;;;;5013537;28;20084;-74
2022/09/30 09:24:24;;;;;;;12.25;8.07;;;12.70;76.30;;;;;;5014628;28;20018;-75
2022/09/30 09:26:53;;;;;;;12.90;7.53;;;12.70;76.50;;;;;;5013420;28;20084;-75
2022/09/30 09:29:34;;;;;;;12.93;8.82;;;12.70;76.70;;;;;;5014483;28;20029;-75
2022/09/30 09:32:02;;;;;;;11.20;8.85;;;12.90;75.30;;;;;;4998345;28;20060;-75
2022/09/30 09:34:29;;;;;;;12.10;9.20;;;13.10;74.70;;;;;;5008899;28;20041;-77
2022/09/30 09:37:08;;;;;;;14.48;9.55;;;13.40;74.30;;;;;;5013782;28;20057;-75
2022/09/30 09:40:08;;;;;;;15.60;9.05;;;13.70;72.70;;;;;;5013040;28;20141;-75
2022/09/30 09:42:41;;;;;;;12.57;7.93;;;13.90;70.30;;;;;;5013138;28;20113;-75
2022/09/30 09:45:24;;;;;;;10.25;7.45;;;14.20;69.70;;;;;;4997331;28;20084;-75
2022/09/30 09:47:56;;;;;;;11.45;8.20;;;14.50;69.40;;;;;;5018943;28;20049;-76
2022/09/30 09:50:48;;;;;;;15.43;8.73;;;14.60;68.40;;;;;;5020709;28;20149;-76
2022/09/30 09:53:46;;;;;;;11.40;8.38;;;14.60;68.20;;;;;;5018463;28;20089;-76
2022/09/30 09:56:20;;;;;;;12.70;7.70;;;14.60;66.60;;;;;;5015582;28;20022;-75
2022/09/30 09:59:11;;;;;;;13.57;8.77;;;14.60;66.90;;;;;;5015802;28;20022;-77
2022/09/30 10:01:41;;;;;;;11.57;7.63;;;14.60;68.00;;;;;;4999277;28;20045;-79
2022/09/30 10:04:24;;;;;;;11.95;7.97;;;14.40;69.30;;;;;;5012786;28;20019;-76
2022/09/30 10:06:59;;;;;;;12.27;8.27;;;14.40;69.70;;;;;;5012518;28;20128;-78
2022/09/30 10:09:26;;;;;;;8.82;7.57;;;14.40;69.90;;;;;;5013818;28;20037;-75
2022/09/30 10:12:17;;;;;;;12.63;6.72;;;14.50;70.00;;;;;;4995667;28;20033;-76
2022/09/30 10:15:12;;;;;;;10.98;6.90;;;14.70;68.40;;;;;;4946683;28;1365065;-76
2022/09/30 10:17:38;;;;;;;10.60;8.25;;;15.00;66.60;;;;;;5016122;28;20124;-75
2022/09/30 10:20:28;;;;;;;10.02;7.25;;;14.80;67.90;;;;;;5033377;28;20040;-76
2022/09/30 10:23:21;;;;;;;13.63;8.00;;;15.00;69.00;;;;;;5032414;28;20053;-76
2022/09/30 10:26:10;;;;;;;13.77;8.27;;;15.20;68.20;;;;;;5016322;28;20393;-77
2022/09/30 10:28:44;;;;;;;14.43;8.38;;;15.60;67.00;;;;;;5016096;28;20037;-76
2022/09/30 10:31:37;;;;;;;9.88;7.45;;;15.60;67.10;;;;;;5016689;28;20036;-77
2022/09/30 10:34:35;;;;;;;12.18;8.30;;;15.70;66.20;;;;;;5014456;28;20025;-76
2022/09/30 10:37:09;;;;;;;9.93;7.03;;;15.60;65.50;;;;;;5032741;28;20128;-78
2022/09/30 10:39:40;;;;;;;11.43;8.32;;;15.90;65.50;;;;;;5032106;28;20489;-78
2022/09/30 10:42:23;;;;;;;7.88;6.07;;;16.20;63.70;;;;;;5016376;28;20419;-77
2022/09/30 10:44:56;;;;;;;8.15;5.60;;;16.10;62.60;;;;;;5033249;28;20036;-77
2022/09/30 10:47:26;;;;;;;12.55;7.00;;;16.30;61.70;;;;;;5032411;28;20032;-77
2022/09/30 10:50:06;;;;;;;8.77;6.25;;;16.50;62.20;;;;;;5031364;28;20466;-78
2022/09/30 10:52:36;;;;;;;7.40;5.95;;;16.60;62.10;;;;;;5031762;28;20036;-78
2022/09/30 10:55:24;;;;;;;9.43;7.13;;;16.60;62.70;;;;;;5016097;28;20489;-78
2022/09/30 10:57:52;;;;;;;9.80;6.28;;;16.80;61.50;;;;;;5015885;28;20467;-76
2022/09/30 11:00:21;;;;;;;10.82;6.45;;;17.30;61.10;;;;;;5032307;28;20022;-76
2022/09/30 11:03:09;;;;;;;6.88;5.72;;;17.60;59.30;;;;;;5032521;28;20082;-77
2022/09/30 11:05:42;;;;;;;7.95;5.72;;;17.50;59.20;;;;;;5032741;28;20025;-76
2022/09/30 11:08:26;;;;;;;6.55;5.18;;;17.60;59.20;;;;;;5015829;28;20064;-76
2022/09/30 11:11:13;;;;;;;7.18;4.50;;;17.50;59.30;;;;;;5032952;28;20507;-77
2022/09/30 11:14:20;;;;;;;6.75;4.68;;;17.50;59.60;;;;;;5032505;28;20033;-78
2022/09/30 11:17:02;;;;;;;6.13;4.82;;;17.40;58.90;;;;;;5010993;28;20064;-77
2022/09/30 11:19:42;;;;;;;6.32;5.05;;;17.20;59.80;;;;;;5016114;28;20060;-76
2022/09/30 11:22:29;;;;;;;10.35;6.07;;;17.20;59.90;;;;;;5015275;28;20502;-77
2022/09/30 11:24:56;;;;;;;6.30;4.88;;;17.00;59.60;;;;;;5015099;28;20029;-78
2022/09/30 11:27:34;;;;;;;7.22;5.00;;;16.90;59.60;;;;;;5032759;28;20030;-77
2022/09/30 11:30:08;;;;;;;7.43;4.68;;;17.00;58.90;;;;;;5015658;28;20373;-78
2022/09/30 11:32:42;;;;;;;8.68;4.78;;;17.30;58.00;;;;;;5031724;28;20061;-80
2022/09/30 11:35:08;;;;;;;5.88;4.40;;;17.90;57.80;;;;;;5016256;28;20094;-81
2022/09/30 11:37:52;;;;;;;8.32;4.80;;;18.50;56.70;;;;;;5015966;28;20381;-78
2022/09/30 11:40:40;;;;;;;6.28;4.25;;;19.10;55.30;;;;;;5015129;28;20017;-78
2022/09/30 11:43:17;;;;;;;6.53;4.10;;;19.80;53.20;;;;;;5031768;28;20025;-78
2022/09/30 11:46:04;;;;;;;8.18;3.83;;;20.30;50.40;;;;;;5031785;28;20041;-77
2022/09/30 11:49:13;;;;;;;7.47;3.47;;;20.70;45.80;;;;;;5034603;28;20064;-77
2022/09/30 11:52:13;;;;;;;6.40;3.40;;;21.10;44.20;;;;;;4996725;28;20072;-78
2022/09/30 11:55:00;;;;;;;8.15;3.85;;;21.00;42.60;;;;;;5032765;28;20125;-76
2022/09/30 11:57:36;;;;;;;4.80;3.70;;;21.00;44.20;;;;;;5015207;28;20231;-76
2022/09/30 12:00:06;;;;;;;4.65;3.47;;;20.50;43.60;;;;;;5014937;28;20022;-76
2022/09/30 12:02:48;;;;;;;7.10;4.22;;;20.40;46.10;;;;;;5014862;28;20385;-77
2022/09/30 12:05:23;;;;;;;4.07;3.50;;;20.30;44.70;;;;;;5014844;28;20585;-76
2022/09/30 12:07:57;;;;;;;4.78;3.30;;;20.10;46.00;;;;;;5031061;28;20481;-76
2022/09/30 12:10:34;;;;;;;7.53;4.37;;;20.10;46.40;;;;;;5030993;28;20041;-75
2022/09/30 12:13:13;;;;;;;5.10;3.67;;;20.20;46.50;;;;;;5031469;28;20264;-76
2022/09/30 12:15:43;;;;;;;7.47;3.58;;;20.20;45.20;;;;;;5031099;28;20114;-75
2022/09/30 12:18:16;;;;;;;7.40;3.65;;;20.20;45.10;;;;;;5014913;28;20029;-76
2022/09/30 12:20:48;;;;;;;4.47;3.50;;;20.00;44.80;;;;;;5015031;28;20022;-76
2022/09/30 12:23:38;;;;;;;6.05;3.47;;;19.60;45.50;;;;;;5014705;28;20025;-75
2022/09/30 12:26:04;;;;;;;4.75;3.28;;;19.20;46.70;;;;;;5015242;28;20029;-76
2022/09/30 12:32:02;;;;;;;5.13;2.63;;;19.20;49.00;;;;;;5032660;28;20425;-75
2022/09/30 12:34:39;;;;;;;4.97;3.30;;;19.50;46.60;;;;;;5015177;28;20147;-75
2022/09/30 12:37:17;;;;;;;4.72;3.38;;;19.50;48.70;;;;;;5014822;28;20021;-75
2022/09/30 12:40:11;;;;;;;7.55;3.53;;;19.00;48.50;;;;;;5014714;28;20030;-75
2022/09/30 12:43:08;;;;;;;5.80;2.95;;;18.60;49.00;;;;;;5014819;28;20021;-78
2022/09/30 12:45:55;;;;;;;7.00;3.47;;;18.30;50.20;;;;;;5014667;28;20393;-75
2022/09/30 12:48:29;;;;;;;4.25;3.25;;;18.00;52.60;;;;;;5014198;28;20057;-76
2022/09/30 12:50:56;;;;;;;4.90;4.05;;;17.70;54.50;;;;;;5014886;28;20432;-76
2022/09/30 12:53:37;;;;;;;5.80;3.78;;;17.50;55.80;;;;;;5014688;28;20026;-77
2022/09/30 12:56:13;;;;;;;5.50;4.13;;;17.30;56.90;;;;;;5014597;28;20025;-75
2022/09/30 12:58:47;;;;;;;;;;;17.10;57.70;;;;;;5015355;28;20018;-75
2022/09/30 13:01:22;;;;;;;5.72;3.35;;;16.90;58.40;;;;;;5014440;28;20000;-74
2022/09/30 13:04:12;;;;;;;5.60;3.85;;;16.80;59.20;;;;;;5014382;28;20087;-75
2022/09/30 13:06:44;;;;;;;5.05;3.70;;;16.70;59.50;;;;;;5031796;28;20033;-74
2022/09/30 13:09:15;;;;;;;5.82;2.80;;;16.50;57.70;;;;;;5014643;28;20087;-74
2022/09/30 13:11:45;;;;;;;4.80;3.42;;;16.40;58.00;;;;;;5014411;28;20034;-73
2022/09/30 13:14:24;;;;;;;5.03;3.17;;;16.10;58.30;;;;;;5014381;28;20026;-74
2022/09/30 13:17:09;;;;;;;3.22;2.35;;;16.00;59.00;;;;;;5014317;28;20032;-75
2022/09/30 13:19:39;;;;;;;4.18;3.08;;;15.90;60.50;;;;;;5014421;28;20124;-75
2022/09/30 13:22:43;;;;;;;3.63;2.85;;;15.90;61.60;;;;;;5014601;28;20033;-75
2022/09/30 13:25:14;;;;;;;5.32;3.17;;;16.00;61.90;;;;;;5011011;28;20040;-73
2022/09/30 13:27:54;;;;;;;4.47;2.90;;;16.00;61.60;;;;;;5014050;28;20390;-73
2022/09/30 13:30:19;;;;;;;3.65;2.85;;;16.00;61.80;;;;;;5014132;28;20596;-74